sensor_id;sensor_type;location;lat;lon;timestamp;temperature;humidity
68922;DHT22;55959;51.244;5.724;2024-03-25T00:00:17;9.10;69.20
68922;DHT22;55959;51.244;5.724;2024-03-25T00:02:43;9.10;69.30
68922;DHT22;55959;51.244;5.724;2024-03-25T00:05:09;9.10;69.30
68922;DHT22;55959;51.244;5.724;2024-03-25T00:07:39;9.10;69.40
68922;DHT22;55959;51.244;5.724;2024-03-25T00:10:05;9.10;69.40
68922;DHT22;55959;51.244;5.724;2024-03-25T00:12:34;9.00;69.40
68922;DHT22;55959;51.244;5.724;2024-03-25T00:15:00;9.00;69.40
68922;DHT22;55959;51.244;5.724;2024-03-25T00:17:26;9.00;69.40
68922;DHT22;55959;51.244;5.724;2024-03-25T00:19:52;9.00;69.40
68922;DHT22;55959;51.244;5.724;2024-03-25T00:22:19;8.90;69.40
68922;DHT22;55959;51.244;5.724;2024-03-25T00:24:46;8.90;69.60
68922;DHT22;55959;51.244;5.724;2024-03-25T00:27:12;8.90;69.50
68922;DHT22;55959;51.244;5.724;2024-03-25T00:29:39;8.90;69.60
68922;DHT22;55959;51.244;5.724;2024-03-25T00:32:05;8.80;69.50
68922;DHT22;55959;51.244;5.724;2024-03-25T00:34:32;8.80;69.50
68922;DHT22;55959;51.244;5.724;2024-03-25T00:36:58;8.80;69.60
68922;DHT22;55959;51.244;5.724;2024-03-25T00:39:24;8.80;69.70
68922;DHT22;55959;51.244;5.724;2024-03-25T00:41:54;8.70;69.60
68922;DHT22;55959;51.244;5.724;2024-03-25T00:44:20;8.70;69.60
68922;DHT22;55959;51.244;5.724;2024-03-25T00:46:46;8.70;69.80
68922;DHT22;55959;51.244;5.724;2024-03-25T00:49:12;8.70;69.80
68922;DHT22;55959;51.244;5.724;2024-03-25T00:51:38;8.70;70.00
68922;DHT22;55959;51.244;5.724;2024-03-25T00:54:04;8.60;69.90
68922;DHT22;55959;51.244;5.724;2024-03-25T00:56:30;8.60;70.00
68922;DHT22;55959;51.244;5.724;2024-03-25T00:58:57;8.50;69.90
68922;DHT22;55959;51.244;5.724;2024-03-25T01:01:28;8.60;70.00
68922;DHT22;55959;51.244;5.724;2024-03-25T01:03:54;8.50;70.00
68922;DHT22;55959;51.244;5.724;2024-03-25T01:06:20;8.50;70.20
68922;DHT22;55959;51.244;5.724;2024-03-25T01:08:46;8.50;70.20
68922;DHT22;55959;51.244;5.724;2024-03-25T01:11:12;8.40;70.20
68922;DHT22;55959;51.244;5.724;2024-03-25T01:13:37;8.40;70.30
68922;DHT22;55959;51.244;5.724;2024-03-25T01:16:03;8.40;70.40
68922;DHT22;55959;51.244;5.724;2024-03-25T01:18:29;8.30;70.40
68922;DHT22;55959;51.244;5.724;2024-03-25T01:20:55;8.30;70.50
68922;DHT22;55959;51.244;5.724;2024-03-25T01:23:21;8.30;70.50
68922;DHT22;55959;51.244;5.724;2024-03-25T01:25:46;8.30;70.60
68922;DHT22;55959;51.244;5.724;2024-03-25T01:28:12;8.30;70.70
68922;DHT22;55959;51.244;5.724;2024-03-25T01:30:38;8.20;70.70
68922;DHT22;55959;51.244;5.724;2024-03-25T01:33:05;8.20;70.80
68922;DHT22;55959;51.244;5.724;2024-03-25T01:35:31;8.20;70.90
68922;DHT22;55959;51.244;5.724;2024-03-25T01:37:57;8.20;71.00
68922;DHT22;55959;51.244;5.724;2024-03-25T01:40:23;8.20;71.10
68922;DHT22;55959;51.244;5.724;2024-03-25T01:43:03;8.20;71.20
68922;DHT22;55959;51.244;5.724;2024-03-25T01:45:30;8.10;71.20
68922;DHT22;55959;51.244;5.724;2024-03-25T01:47:59;8.10;71.20
68922;DHT22;55959;51.244;5.724;2024-03-25T01:50:27;8.10;71.40
68922;DHT22;55959;51.244;5.724;2024-03-25T01:52:54;8.10;71.40
68922;DHT22;55959;51.244;5.724;2024-03-25T01:55:26;8.10;71.40
68922;DHT22;55959;51.244;5.724;2024-03-25T01:57:53;8.10;71.60
68922;DHT22;55959;51.244;5.724;2024-03-25T02:00:20;8.10;71.60
68922;DHT22;55959;51.244;5.724;2024-03-25T02:02:46;8.10;71.60
68922;DHT22;55959;51.244;5.724;2024-03-25T02:05:16;8.00;71.60
68922;DHT22;55959;51.244;5.724;2024-03-25T02:07:44;8.00;71.60
68922;DHT22;55959;51.244;5.724;2024-03-25T02:10:10;8.00;71.60
68922;DHT22;55959;51.244;5.724;2024-03-25T02:12:44;8.00;71.60
68922;DHT22;55959;51.244;5.724;2024-03-25T02:15:12;8.00;71.60
68922;DHT22;55959;51.244;5.724;2024-03-25T02:17:41;8.00;71.60
68922;DHT22;55959;51.244;5.724;2024-03-25T02:20:07;8.00;71.70
68922;DHT22;55959;51.244;5.724;2024-03-25T02:22:34;8.00;71.60
68922;DHT22;55959;51.244;5.724;2024-03-25T02:25:05;8.00;71.70
68922;DHT22;55959;51.244;5.724;2024-03-25T02:27:33;7.90;71.70
68922;DHT22;55959;51.244;5.724;2024-03-25T02:30:07;7.90;71.60
68922;DHT22;55959;51.244;5.724;2024-03-25T02:32:35;7.90;71.70
68922;DHT22;55959;51.244;5.724;2024-03-25T02:35:03;7.90;71.70
68922;DHT22;55959;51.244;5.724;2024-03-25T02:37:31;7.90;71.80
68922;DHT22;55959;51.244;5.724;2024-03-25T02:39:59;7.90;71.80
68922;DHT22;55959;51.244;5.724;2024-03-25T02:42:27;7.80;71.80
68922;DHT22;55959;51.244;5.724;2024-03-25T02:44:55;7.80;71.80
68922;DHT22;55959;51.244;5.724;2024-03-25T02:47:21;7.80;71.80
68922;DHT22;55959;51.244;5.724;2024-03-25T02:49:47;7.80;71.80
68922;DHT22;55959;51.244;5.724;2024-03-25T02:52:13;7.80;71.80
68922;DHT22;55959;51.244;5.724;2024-03-25T02:54:39;7.80;71.80
68922;DHT22;55959;51.244;5.724;2024-03-25T02:57:05;7.80;71.80
68922;DHT22;55959;51.244;5.724;2024-03-25T02:59:31;7.80;71.70
68922;DHT22;55959;51.244;5.724;2024-03-25T03:01:57;7.70;71.70
68922;DHT22;55959;51.244;5.724;2024-03-25T03:04:22;7.70;71.80
68922;DHT22;55959;51.244;5.724;2024-03-25T03:06:48;7.70;71.70
68922;DHT22;55959;51.244;5.724;2024-03-25T03:09:14;7.70;71.70
68922;DHT22;55959;51.244;5.724;2024-03-25T03:11:40;7.70;71.60
68922;DHT22;55959;51.244;5.724;2024-03-25T03:14:06;7.70;71.60
68922;DHT22;55959;51.244;5.724;2024-03-25T03:16:32;7.70;71.60
68922;DHT22;55959;51.244;5.724;2024-03-25T03:18:58;7.60;71.40
68922;DHT22;55959;51.244;5.724;2024-03-25T03:21:24;7.60;71.30
68922;DHT22;55959;51.244;5.724;2024-03-25T03:23:49;7.60;71.30
68922;DHT22;55959;51.244;5.724;2024-03-25T03:26:15;7.60;71.30
68922;DHT22;55959;51.244;5.724;2024-03-25T03:28:41;7.50;71.20
68922;DHT22;55959;51.244;5.724;2024-03-25T03:31:07;7.50;71.20
68922;DHT22;55959;51.244;5.724;2024-03-25T03:33:33;7.50;71.10
68922;DHT22;55959;51.244;5.724;2024-03-25T03:35:58;7.50;71.10
68922;DHT22;55959;51.244;5.724;2024-03-25T03:38:24;7.50;71.10
68922;DHT22;55959;51.244;5.724;2024-03-25T03:41:00;7.40;71.00
68922;DHT22;55959;51.244;5.724;2024-03-25T03:43:26;7.40;71.00
68922;DHT22;55959;51.244;5.724;2024-03-25T03:45:52;7.40;71.00
68922;DHT22;55959;51.244;5.724;2024-03-25T03:48:18;7.40;71.00
68922;DHT22;55959;51.244;5.724;2024-03-25T03:50:44;7.40;71.00
68922;DHT22;55959;51.244;5.724;2024-03-25T03:53:10;7.30;71.00
68922;DHT22;55959;51.244;5.724;2024-03-25T03:55:36;7.30;71.00
68922;DHT22;55959;51.244;5.724;2024-03-25T03:58:02;7.30;71.00
68922;DHT22;55959;51.244;5.724;2024-03-25T04:00:29;7.20;71.00
68922;DHT22;55959;51.244;5.724;2024-03-25T04:02:54;7.20;71.00
68922;DHT22;55959;51.244;5.724;2024-03-25T04:05:20;7.20;71.10
68922;DHT22;55959;51.244;5.724;2024-03-25T04:07:46;7.20;71.20
68922;DHT22;55959;51.244;5.724;2024-03-25T04:10:12;7.10;71.10
68922;DHT22;55959;51.244;5.724;2024-03-25T04:12:39;7.10;71.20
68922;DHT22;55959;51.244;5.724;2024-03-25T04:15:05;7.10;71.10
68922;DHT22;55959;51.244;5.724;2024-03-25T04:17:31;7.10;71.20
68922;DHT22;55959;51.244;5.724;2024-03-25T04:19:59;7.10;71.20
68922;DHT22;55959;51.244;5.724;2024-03-25T04:22:31;7.00;71.10
68922;DHT22;55959;51.244;5.724;2024-03-25T04:24:57;7.00;71.10
68922;DHT22;55959;51.244;5.724;2024-03-25T04:27:23;7.00;72.00
68922;DHT22;55959;51.244;5.724;2024-03-25T04:29:49;7.00;71.20
68922;DHT22;55959;51.244;5.724;2024-03-25T04:32:15;7.00;71.20
68922;DHT22;55959;51.244;5.724;2024-03-25T04:34:41;6.90;71.10
68922;DHT22;55959;51.244;5.724;2024-03-25T04:37:08;6.90;71.20
68922;DHT22;55959;51.244;5.724;2024-03-25T04:39:35;6.90;71.20
68922;DHT22;55959;51.244;5.724;2024-03-25T04:42:01;6.90;71.20
68922;DHT22;55959;51.244;5.724;2024-03-25T04:44:27;6.90;71.20
68922;DHT22;55959;51.244;5.724;2024-03-25T04:46:53;6.90;71.20
68922;DHT22;55959;51.244;5.724;2024-03-25T04:49:19;6.80;71.20
68922;DHT22;55959;51.244;5.724;2024-03-25T04:51:45;6.80;71.40
68922;DHT22;55959;51.244;5.724;2024-03-25T04:54:10;6.80;71.40
68922;DHT22;55959;51.244;5.724;2024-03-25T04:56:36;6.80;71.40
68922;DHT22;55959;51.244;5.724;2024-03-25T04:59:02;6.80;71.50
68922;DHT22;55959;51.244;5.724;2024-03-25T05:01:28;6.70;71.50
68922;DHT22;55959;51.244;5.724;2024-03-25T05:03:54;6.70;72.40
68922;DHT22;55959;51.244;5.724;2024-03-25T05:06:19;6.70;71.50
68922;DHT22;55959;51.244;5.724;2024-03-25T05:08:45;6.70;71.60
68922;DHT22;55959;51.244;5.724;2024-03-25T05:11:11;6.60;71.60
68922;DHT22;55959;51.244;5.724;2024-03-25T05:13:36;6.60;71.70
68922;DHT22;55959;51.244;5.724;2024-03-25T05:16:02;6.60;71.60
68922;DHT22;55959;51.244;5.724;2024-03-25T05:18:29;6.60;71.60
68922;DHT22;55959;51.244;5.724;2024-03-25T05:20:54;6.60;71.70
68922;DHT22;55959;51.244;5.724;2024-03-25T05:23:20;6.60;71.60
68922;DHT22;55959;51.244;5.724;2024-03-25T05:25:46;6.60;71.70
68922;DHT22;55959;51.244;5.724;2024-03-25T05:28:12;6.50;71.60
68922;DHT22;55959;51.244;5.724;2024-03-25T05:30:39;6.50;71.70
68922;DHT22;55959;51.244;5.724;2024-03-25T05:33:04;6.50;71.70
68922;DHT22;55959;51.244;5.724;2024-03-25T05:35:30;6.40;71.70
68922;DHT22;55959;51.244;5.724;2024-03-25T05:37:59;6.40;71.70
68922;DHT22;55959;51.244;5.724;2024-03-25T05:40:24;6.40;71.70
68922;DHT22;55959;51.244;5.724;2024-03-25T05:42:50;6.40;71.80
68922;DHT22;55959;51.244;5.724;2024-03-25T05:45:16;6.40;71.90
68922;DHT22;55959;51.244;5.724;2024-03-25T05:47:42;6.40;72.10
68922;DHT22;55959;51.244;5.724;2024-03-25T05:50:08;6.40;72.10
68922;DHT22;55959;51.244;5.724;2024-03-25T05:52:34;6.40;72.20
68922;DHT22;55959;51.244;5.724;2024-03-25T05:54:59;6.40;72.30
68922;DHT22;55959;51.244;5.724;2024-03-25T05:57:25;6.40;72.50
68922;DHT22;55959;51.244;5.724;2024-03-25T05:59:51;6.40;72.60
68922;DHT22;55959;51.244;5.724;2024-03-25T06:02:17;6.40;73.50
68922;DHT22;55959;51.244;5.724;2024-03-25T06:04:42;6.40;72.80
68922;DHT22;55959;51.244;5.724;2024-03-25T06:07:08;6.40;72.90
68922;DHT22;55959;51.244;5.724;2024-03-25T06:09:34;6.40;73.10
68922;DHT22;55959;51.244;5.724;2024-03-25T06:12:00;6.50;73.30
68922;DHT22;55959;51.244;5.724;2024-03-25T06:14:25;6.50;73.40
68922;DHT22;55959;51.244;5.724;2024-03-25T06:16:51;6.60;73.60
68922;DHT22;55959;51.244;5.724;2024-03-25T06:19:17;6.60;73.70
68922;DHT22;55959;51.244;5.724;2024-03-25T06:21:43;6.60;74.00
68922;DHT22;55959;51.244;5.724;2024-03-25T06:24:08;6.70;74.20
68922;DHT22;55959;51.244;5.724;2024-03-25T06:26:34;6.70;74.40
68922;DHT22;55959;51.244;5.724;2024-03-25T06:29:00;6.80;74.70
68922;DHT22;55959;51.244;5.724;2024-03-25T06:31:26;6.90;75.00
68922;DHT22;55959;51.244;5.724;2024-03-25T06:34:10;7.00;75.20
68922;DHT22;55959;51.244;5.724;2024-03-25T06:36:47;7.10;75.40
68922;DHT22;55959;51.244;5.724;2024-03-25T06:39:14;7.20;75.80
68922;DHT22;55959;51.244;5.724;2024-03-25T06:41:40;7.40;76.20
68922;DHT22;55959;51.244;5.724;2024-03-25T06:44:07;7.50;76.50
68922;DHT22;55959;51.244;5.724;2024-03-25T06:46:33;7.70;77.00
68922;DHT22;55959;51.244;5.724;2024-03-25T06:48:59;7.90;77.60
68922;DHT22;55959;51.244;5.724;2024-03-25T06:51:25;8.20;77.90
68922;DHT22;55959;51.244;5.724;2024-03-25T06:53:51;8.50;78.20
68922;DHT22;55959;51.244;5.724;2024-03-25T06:56:17;8.80;78.00
68922;DHT22;55959;51.244;5.724;2024-03-25T06:58:42;9.20;78.00
68922;DHT22;55959;51.244;5.724;2024-03-25T07:01:09;9.50;78.00
68922;DHT22;55959;51.244;5.724;2024-03-25T07:03:37;9.90;77.50
68922;DHT22;55959;51.244;5.724;2024-03-25T07:06:04;10.30;76.80
68922;DHT22;55959;51.244;5.724;2024-03-25T07:08:30;10.70;76.30
68922;DHT22;55959;51.244;5.724;2024-03-25T07:10:56;11.00;75.70
68922;DHT22;55959;51.244;5.724;2024-03-25T07:13:22;11.40;75.00
68922;DHT22;55959;51.244;5.724;2024-03-25T07:15:48;11.80;74.00
68922;DHT22;55959;51.244;5.724;2024-03-25T07:18:15;12.10;72.20
68922;DHT22;55959;51.244;5.724;2024-03-25T07:20:41;12.30;70.30
68922;DHT22;55959;51.244;5.724;2024-03-25T07:23:08;12.40;68.70
68922;DHT22;55959;51.244;5.724;2024-03-25T07:25:33;12.50;67.30
68922;DHT22;55959;51.244;5.724;2024-03-25T07:27:59;12.50;65.90
68922;DHT22;55959;51.244;5.724;2024-03-25T07:30:25;12.40;65.40
68922;DHT22;55959;51.244;5.724;2024-03-25T07:32:59;12.20;65.00
68922;DHT22;55959;51.244;5.724;2024-03-25T07:35:25;12.10;64.80
68922;DHT22;55959;51.244;5.724;2024-03-25T07:37:52;12.00;64.70
68922;DHT22;55959;51.244;5.724;2024-03-25T07:40:18;11.90;65.10
68922;DHT22;55959;51.244;5.724;2024-03-25T07:42:44;11.70;65.30
68922;DHT22;55959;51.244;5.724;2024-03-25T07:45:10;11.70;65.80
68922;DHT22;55959;51.244;5.724;2024-03-25T07:47:36;11.60;66.10
68922;DHT22;55959;51.244;5.724;2024-03-25T07:50:02;11.60;66.40
68922;DHT22;55959;51.244;5.724;2024-03-25T07:52:28;11.50;66.70
68922;DHT22;55959;51.244;5.724;2024-03-25T07:54:55;11.40;66.50
68922;DHT22;55959;51.244;5.724;2024-03-25T07:57:21;11.40;66.60
68922;DHT22;55959;51.244;5.724;2024-03-25T07:59:47;11.40;66.50
68922;DHT22;55959;51.244;5.724;2024-03-25T08:02:12;11.30;66.50
68922;DHT22;55959;51.244;5.724;2024-03-25T08:04:38;11.20;66.60
68922;DHT22;55959;51.244;5.724;2024-03-25T08:07:05;11.20;66.90
68922;DHT22;55959;51.244;5.724;2024-03-25T08:09:31;11.10;67.10
68922;DHT22;55959;51.244;5.724;2024-03-25T08:11:57;11.00;67.50
68922;DHT22;55959;51.244;5.724;2024-03-25T08:14:22;11.00;67.70
68922;DHT22;55959;51.244;5.724;2024-03-25T08:16:48;10.90;67.70
68922;DHT22;55959;51.244;5.724;2024-03-25T08:19:14;10.90;68.10
68922;DHT22;55959;51.244;5.724;2024-03-25T08:21:40;10.80;68.30
68922;DHT22;55959;51.244;5.724;2024-03-25T08:24:06;10.80;68.70
68922;DHT22;55959;51.244;5.724;2024-03-25T08:26:32;10.80;68.90
68922;DHT22;55959;51.244;5.724;2024-03-25T08:28:58;10.80;69.10
68922;DHT22;55959;51.244;5.724;2024-03-25T08:31:24;10.80;69.30
68922;DHT22;55959;51.244;5.724;2024-03-25T08:33:50;10.90;69.70
68922;DHT22;55959;51.244;5.724;2024-03-25T08:36:16;10.90;70.00
68922;DHT22;55959;51.244;5.724;2024-03-25T08:38:41;10.90;70.10
68922;DHT22;55959;51.244;5.724;2024-03-25T08:41:07;10.90;70.10
68922;DHT22;55959;51.244;5.724;2024-03-25T08:43:33;11.00;70.30
68922;DHT22;55959;51.244;5.724;2024-03-25T08:45:59;11.00;70.20
68922;DHT22;55959;51.244;5.724;2024-03-25T08:48:24;11.10;70.10
68922;DHT22;55959;51.244;5.724;2024-03-25T08:50:50;11.10;69.90
68922;DHT22;55959;51.244;5.724;2024-03-25T08:53:16;11.10;69.90
68922;DHT22;55959;51.244;5.724;2024-03-25T08:55:48;11.10;70.00
68922;DHT22;55959;51.244;5.724;2024-03-25T08:58:14;11.10;70.10
68922;DHT22;55959;51.244;5.724;2024-03-25T09:00:44;11.10;70.30
68922;DHT22;55959;51.244;5.724;2024-03-25T09:03:10;11.10;70.20
68922;DHT22;55959;51.244;5.724;2024-03-25T09:05:38;11.20;70.30
68922;DHT22;55959;51.244;5.724;2024-03-25T09:08:05;11.20;70.30
68922;DHT22;55959;51.244;5.724;2024-03-25T09:10:31;11.30;70.30
68922;DHT22;55959;51.244;5.724;2024-03-25T09:13:16;11.30;70.10
68922;DHT22;55959;51.244;5.724;2024-03-25T09:15:42;11.40;70.30
68922;DHT22;55959;51.244;5.724;2024-03-25T09:18:08;11.40;70.20
68922;DHT22;55959;51.244;5.724;2024-03-25T09:20:33;11.40;70.30
68922;DHT22;55959;51.244;5.724;2024-03-25T09:22:59;11.50;70.30
68922;DHT22;55959;51.244;5.724;2024-03-25T09:25:25;11.60;70.40
68922;DHT22;55959;51.244;5.724;2024-03-25T09:27:51;11.60;70.20
68922;DHT22;55959;51.244;5.724;2024-03-25T09:30:17;11.60;70.10
68922;DHT22;55959;51.244;5.724;2024-03-25T09:32:46;11.70;70.10
68922;DHT22;55959;51.244;5.724;2024-03-25T09:35:13;11.80;70.30
68922;DHT22;55959;51.244;5.724;2024-03-25T09:37:38;11.80;70.30
68922;DHT22;55959;51.244;5.724;2024-03-25T09:40:05;11.90;70.20
68922;DHT22;55959;51.244;5.724;2024-03-25T09:45:15;12.00;69.10
68922;DHT22;55959;51.244;5.724;2024-03-25T09:47:45;12.00;68.40
68922;DHT22;55959;51.244;5.724;2024-03-25T09:50:15;12.10;68.10
68922;DHT22;55959;51.244;5.724;2024-03-25T09:52:51;12.10;67.70
68922;DHT22;55959;51.244;5.724;2024-03-25T09:55:17;12.10;68.00
68922;DHT22;55959;51.244;5.724;2024-03-25T09:57:44;12.20;68.00
68922;DHT22;55959;51.244;5.724;2024-03-25T10:00:11;12.20;67.70
68922;DHT22;55959;51.244;5.724;2024-03-25T10:02:39;12.30;67.60
68922;DHT22;55959;51.244;5.724;2024-03-25T10:05:06;12.30;67.40
68922;DHT22;55959;51.244;5.724;2024-03-25T10:07:33;12.40;67.30
68922;DHT22;55959;51.244;5.724;2024-03-25T10:10:02;12.50;67.20
68922;DHT22;55959;51.244;5.724;2024-03-25T10:12:32;12.50;66.90
68922;DHT22;55959;51.244;5.724;2024-03-25T10:14:58;12.60;66.40
68922;DHT22;55959;51.244;5.724;2024-03-25T10:17:24;12.60;66.00
68922;DHT22;55959;51.244;5.724;2024-03-25T10:19:50;12.70;65.90
68922;DHT22;55959;51.244;5.724;2024-03-25T10:22:16;12.70;65.70
68922;DHT22;55959;51.244;5.724;2024-03-25T10:24:43;12.80;65.90
68922;DHT22;55959;51.244;5.724;2024-03-25T10:27:18;12.80;64.40
68922;DHT22;55959;51.244;5.724;2024-03-25T10:29:51;12.90;63.20
68922;DHT22;55959;51.244;5.724;2024-03-25T10:32:18;13.00;63.50
68922;DHT22;55959;51.244;5.724;2024-03-25T10:34:44;13.10;63.00
68922;DHT22;55959;51.244;5.724;2024-03-25T10:37:11;13.10;62.80
68922;DHT22;55959;51.244;5.724;2024-03-25T10:39:47;13.20;62.40
68922;DHT22;55959;51.244;5.724;2024-03-25T10:42:18;13.20;61.00
68922;DHT22;55959;51.244;5.724;2024-03-25T10:44:45;13.30;60.20
68922;DHT22;55959;51.244;5.724;2024-03-25T10:47:36;13.30;59.60
68922;DHT22;55959;51.244;5.724;2024-03-25T10:50:07;13.40;59.70
68922;DHT22;55959;51.244;5.724;2024-03-25T10:52:36;13.40;59.10
68922;DHT22;55959;51.244;5.724;2024-03-25T10:55:03;13.40;58.70
68922;DHT22;55959;51.244;5.724;2024-03-25T10:57:30;13.50;57.60
68922;DHT22;55959;51.244;5.724;2024-03-25T10:59:57;13.50;57.30
68922;DHT22;55959;51.244;5.724;2024-03-25T11:02:23;13.60;57.00
68922;DHT22;55959;51.244;5.724;2024-03-25T11:04:50;13.70;56.90
68922;DHT22;55959;51.244;5.724;2024-03-25T11:07:17;13.70;56.10
68922;DHT22;55959;51.244;5.724;2024-03-25T11:09:43;13.70;55.30
68922;DHT22;55959;51.244;5.724;2024-03-25T11:12:12;13.80;55.60
68922;DHT22;55959;51.244;5.724;2024-03-25T11:14:39;13.80;56.10
68922;DHT22;55959;51.244;5.724;2024-03-25T11:17:14;13.90;55.70
68922;DHT22;55959;51.244;5.724;2024-03-25T11:19:44;13.90;55.60
68922;DHT22;55959;51.244;5.724;2024-03-25T11:22:11;13.90;55.50
68922;DHT22;55959;51.244;5.724;2024-03-25T11:24:37;13.90;55.40
68922;DHT22;55959;51.244;5.724;2024-03-25T11:27:06;14.00;54.70
68922;DHT22;55959;51.244;5.724;2024-03-25T11:29:33;14.00;54.70
68922;DHT22;55959;51.244;5.724;2024-03-25T11:32:03;14.10;54.70
68922;DHT22;55959;51.244;5.724;2024-03-25T11:34:29;14.10;54.30
68922;DHT22;55959;51.244;5.724;2024-03-25T11:36:55;14.20;54.20
68922;DHT22;55959;51.244;5.724;2024-03-25T11:39:23;14.20;54.30
68922;DHT22;55959;51.244;5.724;2024-03-25T11:41:49;14.20;54.10
68922;DHT22;55959;51.244;5.724;2024-03-25T11:44:16;14.30;54.00
68922;DHT22;55959;51.244;5.724;2024-03-25T11:46:45;14.30;53.20
68922;DHT22;55959;51.244;5.724;2024-03-25T11:49:16;14.30;52.50
68922;DHT22;55959;51.244;5.724;2024-03-25T11:51:45;14.40;52.20
68922;DHT22;55959;51.244;5.724;2024-03-25T11:54:12;14.40;52.40
68922;DHT22;55959;51.244;5.724;2024-03-25T11:56:38;14.40;52.90
68922;DHT22;55959;51.244;5.724;2024-03-25T11:59:04;14.50;52.80
68922;DHT22;55959;51.244;5.724;2024-03-25T12:01:31;14.60;52.50
68922;DHT22;55959;51.244;5.724;2024-03-25T12:03:57;14.60;52.60
68922;DHT22;55959;51.244;5.724;2024-03-25T12:06:23;14.70;52.20
68922;DHT22;55959;51.244;5.724;2024-03-25T12:08:49;14.70;52.20
68922;DHT22;55959;51.244;5.724;2024-03-25T12:11:33;14.70;51.50
68922;DHT22;55959;51.244;5.724;2024-03-25T12:14:00;14.80;51.80
68922;DHT22;55959;51.244;5.724;2024-03-25T12:16:26;14.80;51.40
68922;DHT22;55959;51.244;5.724;2024-03-25T12:18:51;14.80;51.60
68922;DHT22;55959;51.244;5.724;2024-03-25T12:21:19;14.90;52.00
68922;DHT22;55959;51.244;5.724;2024-03-25T12:23:46;15.00;52.00
68922;DHT22;55959;51.244;5.724;2024-03-25T12:26:13;15.00;51.50
68922;DHT22;55959;51.244;5.724;2024-03-25T12:28:39;15.10;51.40
68922;DHT22;55959;51.244;5.724;2024-03-25T12:31:08;15.10;51.00
68922;DHT22;55959;51.244;5.724;2024-03-25T12:33:45;15.20;50.10
68922;DHT22;55959;51.244;5.724;2024-03-25T12:36:14;15.30;49.50
68922;DHT22;55959;51.244;5.724;2024-03-25T12:38:39;15.30;49.10
68922;DHT22;55959;51.244;5.724;2024-03-25T12:41:10;15.30;49.50
68922;DHT22;55959;51.244;5.724;2024-03-25T12:43:42;15.40;49.80
68922;DHT22;55959;51.244;5.724;2024-03-25T12:46:08;15.40;50.00
68922;DHT22;55959;51.244;5.724;2024-03-25T12:48:35;15.50;49.30
68922;DHT22;55959;51.244;5.724;2024-03-25T12:51:01;15.50;48.80
68922;DHT22;55959;51.244;5.724;2024-03-25T12:53:27;15.60;48.60
68922;DHT22;55959;51.244;5.724;2024-03-25T12:55:53;15.60;48.40
68922;DHT22;55959;51.244;5.724;2024-03-25T12:58:19;15.70;48.40
68922;DHT22;55959;51.244;5.724;2024-03-25T13:00:45;15.70;47.50
68922;DHT22;55959;51.244;5.724;2024-03-25T13:03:12;15.70;47.40
68922;DHT22;55959;51.244;5.724;2024-03-25T13:05:38;15.70;47.50
68922;DHT22;55959;51.244;5.724;2024-03-25T13:08:04;15.80;47.20
68922;DHT22;55959;51.244;5.724;2024-03-25T13:10:30;15.80;46.80
68922;DHT22;55959;51.244;5.724;2024-03-25T13:12:56;15.80;47.20
68922;DHT22;55959;51.244;5.724;2024-03-25T13:15:22;15.80;47.20
68922;DHT22;55959;51.244;5.724;2024-03-25T13:17:48;15.80;47.50
68922;DHT22;55959;51.244;5.724;2024-03-25T13:20:14;15.90;46.30
68922;DHT22;55959;51.244;5.724;2024-03-25T13:22:40;15.90;45.60
68922;DHT22;55959;51.244;5.724;2024-03-25T13:25:06;15.90;45.80
68922;DHT22;55959;51.244;5.724;2024-03-25T13:27:33;15.90;45.70
68922;DHT22;55959;51.244;5.724;2024-03-25T13:29:58;16.00;45.90
68922;DHT22;55959;51.244;5.724;2024-03-25T13:32:24;16.00;46.10
68922;DHT22;55959;51.244;5.724;2024-03-25T13:34:50;16.00;45.70
68922;DHT22;55959;51.244;5.724;2024-03-25T13:37:16;16.10;45.90
68922;DHT22;55959;51.244;5.724;2024-03-25T13:39:42;16.10;46.20
68922;DHT22;55959;51.244;5.724;2024-03-25T13:42:08;16.20;46.20
68922;DHT22;55959;51.244;5.724;2024-03-25T13:44:34;16.20;45.20
68922;DHT22;55959;51.244;5.724;2024-03-25T13:46:59;16.30;45.40
68922;DHT22;55959;51.244;5.724;2024-03-25T13:49:25;16.30;44.70
68922;DHT22;55959;51.244;5.724;2024-03-25T13:51:56;16.40;44.00
68922;DHT22;55959;51.244;5.724;2024-03-25T13:54:24;16.40;43.80
68922;DHT22;55959;51.244;5.724;2024-03-25T13:56:51;16.40;43.00
68922;DHT22;55959;51.244;5.724;2024-03-25T13:59:17;16.50;42.40
68922;DHT22;55959;51.244;5.724;2024-03-25T14:01:42;16.50;42.90
68922;DHT22;55959;51.244;5.724;2024-03-25T14:04:08;16.50;42.40
68922;DHT22;55959;51.244;5.724;2024-03-25T14:06:37;16.50;42.90
68922;DHT22;55959;51.244;5.724;2024-03-25T14:09:03;16.50;42.90
68922;DHT22;55959;51.244;5.724;2024-03-25T14:11:35;16.60;43.60
68922;DHT22;55959;51.244;5.724;2024-03-25T14:14:02;16.60;43.70
68922;DHT22;55959;51.244;5.724;2024-03-25T14:16:28;16.70;43.40
68922;DHT22;55959;51.244;5.724;2024-03-25T14:18:54;16.70;42.90
68922;DHT22;55959;51.244;5.724;2024-03-25T14:21:20;16.70;43.30
68922;DHT22;55959;51.244;5.724;2024-03-25T14:23:46;16.70;43.10
68922;DHT22;55959;51.244;5.724;2024-03-25T14:26:12;16.70;42.20
68922;DHT22;55959;51.244;5.724;2024-03-25T14:28:42;16.70;42.00
68922;DHT22;55959;51.244;5.724;2024-03-25T14:31:08;16.70;41.90
68922;DHT22;55959;51.244;5.724;2024-03-25T14:33:33;16.70;41.70
68922;DHT22;55959;51.244;5.724;2024-03-25T14:35:59;16.60;41.60
68922;DHT22;55959;51.244;5.724;2024-03-25T14:38:25;16.70;41.70
68922;DHT22;55959;51.244;5.724;2024-03-25T14:40:51;16.70;41.60
68922;DHT22;55959;51.244;5.724;2024-03-25T14:43:18;16.70;41.40
68922;DHT22;55959;51.244;5.724;2024-03-25T14:45:46;16.60;41.20
68922;DHT22;55959;51.244;5.724;2024-03-25T14:48:12;16.60;41.60
68922;DHT22;55959;51.244;5.724;2024-03-25T14:50:38;16.60;41.50
68922;DHT22;55959;51.244;5.724;2024-03-25T14:53:04;16.60;41.70
68922;DHT22;55959;51.244;5.724;2024-03-25T14:55:30;16.60;41.40
68922;DHT22;55959;51.244;5.724;2024-03-25T14:57:56;16.60;41.30
68922;DHT22;55959;51.244;5.724;2024-03-25T15:00:22;16.70;41.40
68922;DHT22;55959;51.244;5.724;2024-03-25T15:02:50;16.70;41.50
68922;DHT22;55959;51.244;5.724;2024-03-25T15:05:16;16.70;41.60
68922;DHT22;55959;51.244;5.724;2024-03-25T15:07:44;16.70;41.20
68922;DHT22;55959;51.244;5.724;2024-03-25T15:10:10;16.70;41.20
68922;DHT22;55959;51.244;5.724;2024-03-25T15:12:37;16.70;41.30
68922;DHT22;55959;51.244;5.724;2024-03-25T15:15:04;16.70;41.60
68922;DHT22;55959;51.244;5.724;2024-03-25T15:17:34;16.70;41.70
68922;DHT22;55959;51.244;5.724;2024-03-25T15:20:00;16.70;41.80
68922;DHT22;55959;51.244;5.724;2024-03-25T15:22:26;16.80;42.10
68922;DHT22;55959;51.244;5.724;2024-03-25T15:24:51;16.80;41.40
68922;DHT22;55959;51.244;5.724;2024-03-25T15:27:17;16.80;41.30
68922;DHT22;55959;51.244;5.724;2024-03-25T15:29:43;16.80;41.30
68922;DHT22;55959;51.244;5.724;2024-03-25T15:32:09;16.90;41.30
68922;DHT22;55959;51.244;5.724;2024-03-25T15:34:36;16.90;40.70
68922;DHT22;55959;51.244;5.724;2024-03-25T15:37:01;16.90;40.50